sensor_id;sensor_type;location;lat;lon;timestamp;temperature;humidity
981;DHT22;479;53.514;9.994;2023-09-30T00:01:40;14.40;99.90
981;DHT22;479;53.514;9.994;2023-09-30T00:04:12;14.40;99.90
981;DHT22;479;53.514;9.994;2023-09-30T00:06:44;14.50;99.90
981;DHT22;479;53.514;9.994;2023-09-30T00:09:17;14.40;99.90
981;DHT22;479;53.514;9.994;2023-09-30T00:11:48;14.40;99.90
981;DHT22;479;53.514;9.994;2023-09-30T00:14:16;14.40;99.90
981;DHT22;479;53.514;9.994;2023-09-30T00:16:43;14.40;99.90
981;DHT22;479;53.514;9.994;2023-09-30T00:19:10;14.40;99.90
981;DHT22;479;53.514;9.994;2023-09-30T00:21:39;14.40;99.90
981;DHT22;479;53.514;9.994;2023-09-30T00:24:07;14.30;99.90
981;DHT22;479;53.514;9.994;2023-09-30T00:26:37;14.30;99.90
981;DHT22;479;53.514;9.994;2023-09-30T00:29:06;14.30;99.90
981;DHT22;479;53.514;9.994;2023-09-30T00:31:47;14.30;99.90
981;DHT22;479;53.514;9.994;2023-09-30T00:34:14;14.30;99.90
981;DHT22;479;53.514;9.994;2023-09-30T00:36:41;14.30;99.90
981;DHT22;479;53.514;9.994;2023-09-30T00:39:13;14.30;99.90
981;DHT22;479;53.514;9.994;2023-09-30T00:41:40;14.30;99.90
981;DHT22;479;53.514;9.994;2023-09-30T00:44:08;14.30;99.90
981;DHT22;479;53.514;9.994;2023-09-30T00:46:42;14.20;99.90
981;DHT22;479;53.514;9.994;2023-09-30T00:49:09;14.30;99.90
981;DHT22;479;53.514;9.994;2023-09-30T00:51:37;14.30;99.90
981;DHT22;479;53.514;9.994;2023-09-30T00:54:10;14.30;99.90
981;DHT22;479;53.514;9.994;2023-09-30T00:56:44;14.40;99.90
981;DHT22;479;53.514;9.994;2023-09-30T00:59:13;14.40;99.90
981;DHT22;479;53.514;9.994;2023-09-30T01:01:40;14.40;99.90
981;DHT22;479;53.514;9.994;2023-09-30T01:04:08;14.30;99.90
981;DHT22;479;53.514;9.994;2023-09-30T01:06:43;14.30;99.90
981;DHT22;479;53.514;9.994;2023-09-30T01:09:10;14.30;99.90
981;DHT22;479;53.514;9.994;2023-09-30T01:11:39;14.20;99.90
981;DHT22;479;53.514;9.994;2023-09-30T01:14:33;14.20;99.90
981;DHT22;479;53.514;9.994;2023-09-30T01:17:24;14.20;99.90
981;DHT22;479;53.514;9.994;2023-09-30T01:20:03;14.20;99.90
981;DHT22;479;53.514;9.994;2023-09-30T01:22:36;14.20;99.90
981;DHT22;479;53.514;9.994;2023-09-30T01:25:04;14.20;99.90
981;DHT22;479;53.514;9.994;2023-09-30T01:27:32;14.20;99.90
981;DHT22;479;53.514;9.994;2023-09-30T01:30:00;14.20;99.90
981;DHT22;479;53.514;9.994;2023-09-30T01:32:28;14.10;99.90
981;DHT22;479;53.514;9.994;2023-09-30T01:34:56;14.10;99.90
981;DHT22;479;53.514;9.994;2023-09-30T01:37:22;14.10;99.90
981;DHT22;479;53.514;9.994;2023-09-30T01:39:54;14.10;99.90
981;DHT22;479;53.514;9.994;2023-09-30T01:42:21;14.10;99.90
981;DHT22;479;53.514;9.994;2023-09-30T01:44:48;14.10;99.90
981;DHT22;479;53.514;9.994;2023-09-30T01:47:15;14.10;99.90
981;DHT22;479;53.514;9.994;2023-09-30T01:49:42;14.00;99.90
981;DHT22;479;53.514;9.994;2023-09-30T01:52:09;14.00;99.90
981;DHT22;479;53.514;9.994;2023-09-30T01:54:36;14.00;99.90
981;DHT22;479;53.514;9.994;2023-09-30T01:57:04;14.00;99.90
981;DHT22;479;53.514;9.994;2023-09-30T01:59:31;14.00;99.90
981;DHT22;479;53.514;9.994;2023-09-30T02:01:58;13.90;99.90
981;DHT22;479;53.514;9.994;2023-09-30T02:04:25;13.90;99.90
981;DHT22;479;53.514;9.994;2023-09-30T02:06:52;13.90;99.90
981;DHT22;479;53.514;9.994;2023-09-30T02:09:20;13.90;99.90
981;DHT22;479;53.514;9.994;2023-09-30T02:11:47;13.90;99.90
981;DHT22;479;53.514;9.994;2023-09-30T02:14:15;13.80;99.90
981;DHT22;479;53.514;9.994;2023-09-30T02:16:42;13.80;99.90
981;DHT22;479;53.514;9.994;2023-09-30T02:19:08;13.80;99.90
981;DHT22;479;53.514;9.994;2023-09-30T02:21:36;13.80;99.90
981;DHT22;479;53.514;9.994;2023-09-30T02:24:03;13.80;99.90
981;DHT22;479;53.514;9.994;2023-09-30T02:26:33;13.80;99.90
981;DHT22;479;53.514;9.994;2023-09-30T02:28:59;13.70;99.90
981;DHT22;479;53.514;9.994;2023-09-30T02:31:28;13.80;99.90
981;DHT22;479;53.514;9.994;2023-09-30T02:33:54;13.80;99.90
981;DHT22;479;53.514;9.994;2023-09-30T02:36:22;13.70;99.90
981;DHT22;479;53.514;9.994;2023-09-30T02:38:49;13.70;99.90
981;DHT22;479;53.514;9.994;2023-09-30T02:41:17;13.70;99.90
981;DHT22;479;53.514;9.994;2023-09-30T02:43:44;13.70;99.90
981;DHT22;479;53.514;9.994;2023-09-30T02:46:12;13.70;99.90
981;DHT22;479;53.514;9.994;2023-09-30T02:48:40;13.70;99.90
981;DHT22;479;53.514;9.994;2023-09-30T02:51:09;13.60;99.90
981;DHT22;479;53.514;9.994;2023-09-30T02:53:36;13.60;99.90
981;DHT22;479;53.514;9.994;2023-09-30T02:56:03;13.60;99.90
981;DHT22;479;53.514;9.994;2023-09-30T02:58:32;13.60;99.90
981;DHT22;479;53.514;9.994;2023-09-30T03:00:59;13.60;99.90
981;DHT22;479;53.514;9.994;2023-09-30T03:03:26;13.60;99.90
981;DHT22;479;53.514;9.994;2023-09-30T03:05:55;13.60;99.90
981;DHT22;479;53.514;9.994;2023-09-30T03:08:24;13.60;99.90
981;DHT22;479;53.514;9.994;2023-09-30T03:10:50;13.60;99.90
981;DHT22;479;53.514;9.994;2023-09-30T03:13:18;13.50;99.90
981;DHT22;479;53.514;9.994;2023-09-30T03:15:47;13.50;99.90
981;DHT22;479;53.514;9.994;2023-09-30T03:18:15;13.60;99.90
981;DHT22;479;53.514;9.994;2023-09-30T03:20:42;13.50;99.90
981;DHT22;479;53.514;9.994;2023-09-30T03:23:11;13.50;99.90
981;DHT22;479;53.514;9.994;2023-09-30T03:25:39;13.50;99.90
981;DHT22;479;53.514;9.994;2023-09-30T03:28:07;13.50;99.90
981;DHT22;479;53.514;9.994;2023-09-30T03:30:34;13.50;99.90
981;DHT22;479;53.514;9.994;2023-09-30T03:33:01;13.40;99.90
981;DHT22;479;53.514;9.994;2023-09-30T03:35:30;13.40;99.90
981;DHT22;479;53.514;9.994;2023-09-30T03:37:57;13.40;99.90
981;DHT22;479;53.514;9.994;2023-09-30T03:40:27;13.50;99.90
981;DHT22;479;53.514;9.994;2023-09-30T03:42:59;13.40;99.90
981;DHT22;479;53.514;9.994;2023-09-30T03:45:26;13.40;99.90
981;DHT22;479;53.514;9.994;2023-09-30T03:47:53;13.40;99.90
981;DHT22;479;53.514;9.994;2023-09-30T03:50:21;13.40;99.90
981;DHT22;479;53.514;9.994;2023-09-30T03:52:49;13.50;99.90
981;DHT22;479;53.514;9.994;2023-09-30T03:55:16;13.50;99.90
981;DHT22;479;53.514;9.994;2023-09-30T03:57:47;13.60;99.90
981;DHT22;479;53.514;9.994;2023-09-30T04:00:15;13.50;99.90
981;DHT22;479;53.514;9.994;2023-09-30T04:02:44;13.50;99.90
981;DHT22;479;53.514;9.994;2023-09-30T04:05:14;13.50;99.90
981;DHT22;479;53.514;9.994;2023-09-30T04:07:42;13.50;99.90
981;DHT22;479;53.514;9.994;2023-09-30T04:10:09;13.40;99.90
981;DHT22;479;53.514;9.994;2023-09-30T04:12:36;13.50;99.90
981;DHT22;479;53.514;9.994;2023-09-30T04:15:08;13.40;99.90
981;DHT22;479;53.514;9.994;2023-09-30T04:17:37;13.40;99.90
981;DHT22;479;53.514;9.994;2023-09-30T04:20:06;13.40;99.90
981;DHT22;479;53.514;9.994;2023-09-30T04:22:35;13.40;99.90
981;DHT22;479;53.514;9.994;2023-09-30T04:25:02;13.40;99.90
981;DHT22;479;53.514;9.994;2023-09-30T04:27:31;13.40;99.90
981;DHT22;479;53.514;9.994;2023-09-30T04:29:58;13.40;99.90
981;DHT22;479;53.514;9.994;2023-09-30T04:32:26;13.40;99.90
981;DHT22;479;53.514;9.994;2023-09-30T04:34:53;13.40;99.90
981;DHT22;479;53.514;9.994;2023-09-30T04:37:20;13.40;99.90
981;DHT22;479;53.514;9.994;2023-09-30T04:39:47;13.40;99.90
981;DHT22;479;53.514;9.994;2023-09-30T04:42:14;13.40;99.90
981;DHT22;479;53.514;9.994;2023-09-30T04:44:43;13.40;99.90
981;DHT22;479;53.514;9.994;2023-09-30T04:47:10;13.40;99.90
981;DHT22;479;53.514;9.994;2023-09-30T04:49:38;13.40;99.90
981;DHT22;479;53.514;9.994;2023-09-30T04:52:05;13.40;99.90
981;DHT22;479;53.514;9.994;2023-09-30T04:54:33;13.40;99.90
981;DHT22;479;53.514;9.994;2023-09-30T04:57:01;13.40;99.90
981;DHT22;479;53.514;9.994;2023-09-30T04:59:28;13.40;99.90
981;DHT22;479;53.514;9.994;2023-09-30T05:01:55;13.40;99.90
981;DHT22;479;53.514;9.994;2023-09-30T05:04:22;13.40;99.90
981;DHT22;479;53.514;9.994;2023-09-30T05:06:52;13.40;99.90
981;DHT22;479;53.514;9.994;2023-09-30T05:09:20;13.30;99.90
981;DHT22;479;53.514;9.994;2023-09-30T05:11:48;13.40;99.90
981;DHT22;479;53.514;9.994;2023-09-30T05:14:15;13.40;99.90
981;DHT22;479;53.514;9.994;2023-09-30T05:16:42;13.40;99.90
981;DHT22;479;53.514;9.994;2023-09-30T05:19:09;13.40;99.90
981;DHT22;479;53.514;9.994;2023-09-30T05:21:36;13.40;99.90
981;DHT22;479;53.514;9.994;2023-09-30T05:24:05;13.40;99.90
981;DHT22;479;53.514;9.994;2023-09-30T05:26:34;13.40;99.90
981;DHT22;479;53.514;9.994;2023-09-30T05:29:01;13.40;99.90
981;DHT22;479;53.514;9.994;2023-09-30T05:31:28;13.40;99.90
981;DHT22;479;53.514;9.994;2023-09-30T05:33:55;13.40;99.90
981;DHT22;479;53.514;9.994;2023-09-30T05:36:22;13.40;99.90
981;DHT22;479;53.514;9.994;2023-09-30T05:38:48;13.40;99.90
981;DHT22;479;53.514;9.994;2023-09-30T05:41:17;13.40;99.90
981;DHT22;479;53.514;9.994;2023-09-30T05:43:46;13.40;99.90
981;DHT22;479;53.514;9.994;2023-09-30T05:46:14;13.40;99.90
981;DHT22;479;53.514;9.994;2023-09-30T05:48:42;13.40;99.90
981;DHT22;479;53.514;9.994;2023-09-30T05:51:09;13.40;99.90
981;DHT22;479;53.514;9.994;2023-09-30T05:53:39;13.40;99.90
981;DHT22;479;53.514;9.994;2023-09-30T05:56:06;13.50;99.90
981;DHT22;479;53.514;9.994;2023-09-30T05:58:35;13.40;99.90
981;DHT22;479;53.514;9.994;2023-09-30T06:01:07;13.50;99.90
981;DHT22;479;53.514;9.994;2023-09-30T06:03:36;13.50;99.90
981;DHT22;479;53.514;9.994;2023-09-30T06:06:10;13.50;99.90
981;DHT22;479;53.514;9.994;2023-09-30T06:08:39;13.50;99.90
981;DHT22;479;53.514;9.994;2023-09-30T06:11:06;13.50;99.90
981;DHT22;479;53.514;9.994;2023-09-30T06:13:37;13.50;99.90
981;DHT22;479;53.514;9.994;2023-09-30T06:16:04;13.50;99.90
981;DHT22;479;53.514;9.994;2023-09-30T06:18:31;13.60;99.90
981;DHT22;479;53.514;9.994;2023-09-30T06:20:58;13.50;99.90
981;DHT22;479;53.514;9.994;2023-09-30T06:23:26;13.50;99.90
981;DHT22;479;53.514;9.994;2023-09-30T06:25:55;13.60;99.90
981;DHT22;479;53.514;9.994;2023-09-30T06:28:22;13.50;99.90
981;DHT22;479;53.514;9.994;2023-09-30T06:30:53;13.60;99.90
981;DHT22;479;53.514;9.994;2023-09-30T06:33:20;13.60;99.90
981;DHT22;479;53.514;9.994;2023-09-30T06:35:48;13.60;99.90
981;DHT22;479;53.514;9.994;2023-09-30T06:38:17;13.60;99.90
981;DHT22;479;53.514;9.994;2023-09-30T06:40:44;13.70;99.90
981;DHT22;479;53.514;9.994;2023-09-30T06:43:12;13.70;99.90
981;DHT22;479;53.514;9.994;2023-09-30T06:45:41;13.70;99.90
981;DHT22;479;53.514;9.994;2023-09-30T06:48:11;13.90;99.90
981;DHT22;479;53.514;9.994;2023-09-30T06:50:39;13.90;99.90
981;DHT22;479;53.514;9.994;2023-09-30T06:53:07;14.00;99.90
981;DHT22;479;53.514;9.994;2023-09-30T06:55:37;14.20;99.90
981;DHT22;479;53.514;9.994;2023-09-30T06:58:04;14.30;99.90
981;DHT22;479;53.514;9.994;2023-09-30T07:00:33;14.40;99.90
981;DHT22;479;53.514;9.994;2023-09-30T07:03:00;14.60;99.90
981;DHT22;479;53.514;9.994;2023-09-30T07:05:29;14.70;99.90
981;DHT22;479;53.514;9.994;2023-09-30T07:07:56;14.80;99.90
981;DHT22;479;53.514;9.994;2023-09-30T07:10:23;15.10;99.90
981;DHT22;479;53.514;9.994;2023-09-30T07:12:50;15.70;99.90
981;DHT22;479;53.514;9.994;2023-09-30T07:15:18;16.40;99.90
981;DHT22;479;53.514;9.994;2023-09-30T07:17:44;16.70;99.90
981;DHT22;479;53.514;9.994;2023-09-30T07:20:14;17.20;99.90
981;DHT22;479;53.514;9.994;2023-09-30T07:22:42;17.10;99.90
981;DHT22;479;53.514;9.994;2023-09-30T07:25:09;18.00;99.90
981;DHT22;479;53.514;9.994;2023-09-30T07:27:36;19.10;99.90
981;DHT22;479;53.514;9.994;2023-09-30T07:30:04;20.10;99.90
981;DHT22;479;53.514;9.994;2023-09-30T07:32:32;20.60;99.90
981;DHT22;479;53.514;9.994;2023-09-30T07:34:59;21.10;99.90
981;DHT22;479;53.514;9.994;2023-09-30T07:37:26;22.00;99.90
981;DHT22;479;53.514;9.994;2023-09-30T07:39:54;22.30;99.90
981;DHT22;479;53.514;9.994;2023-09-30T07:42:21;22.10;99.90
981;DHT22;479;53.514;9.994;2023-09-30T07:44:49;21.80;99.90
981;DHT22;479;53.514;9.994;2023-09-30T07:47:16;21.80;99.90
981;DHT22;479;53.514;9.994;2023-09-30T07:49:43;22.50;99.90
981;DHT22;479;53.514;9.994;2023-09-30T07:52:10;22.70;99.90
981;DHT22;479;53.514;9.994;2023-09-30T07:54:37;22.90;99.90
981;DHT22;479;53.514;9.994;2023-09-30T07:57:05;23.10;99.90
981;DHT22;479;53.514;9.994;2023-09-30T07:59:32;23.20;99.90
981;DHT22;479;53.514;9.994;2023-09-30T08:02:00;24.00;99.90
981;DHT22;479;53.514;9.994;2023-09-30T08:04:30;23.90;99.90
981;DHT22;479;53.514;9.994;2023-09-30T08:06:57;23.70;99.90
981;DHT22;479;53.514;9.994;2023-09-30T08:09:24;23.60;99.90
981;DHT22;479;53.514;9.994;2023-09-30T08:11:53;23.50;99.90
981;DHT22;479;53.514;9.994;2023-09-30T08:14:23;23.50;99.90
981;DHT22;479;53.514;9.994;2023-09-30T08:16:54;23.60;99.90
981;DHT22;479;53.514;9.994;2023-09-30T08:19:21;24.00;99.90
981;DHT22;479;53.514;9.994;2023-09-30T08:21:48;23.90;99.90
981;DHT22;479;53.514;9.994;2023-09-30T08:24:15;23.50;99.90
981;DHT22;479;53.514;9.994;2023-09-30T08:26:43;23.40;99.90
981;DHT22;479;53.514;9.994;2023-09-30T08:29:11;23.70;99.90
981;DHT22;479;53.514;9.994;2023-09-30T08:31:39;23.70;99.90
981;DHT22;479;53.514;9.994;2023-09-30T08:34:09;23.20;99.90
981;DHT22;479;53.514;9.994;2023-09-30T08:36:36;23.30;99.90
981;DHT22;479;53.514;9.994;2023-09-30T08:39:05;23.40;99.90
981;DHT22;479;53.514;9.994;2023-09-30T08:41:40;23.20;99.90
981;DHT22;479;53.514;9.994;2023-09-30T08:44:09;23.20;99.90
981;DHT22;479;53.514;9.994;2023-09-30T08:46:38;23.20;99.90
981;DHT22;479;53.514;9.994;2023-09-30T08:49:05;23.00;99.90
981;DHT22;479;53.514;9.994;2023-09-30T08:51:32;22.90;99.90
981;DHT22;479;53.514;9.994;2023-09-30T08:54:02;22.70;99.90
981;DHT22;479;53.514;9.994;2023-09-30T08:56:31;22.80;99.90
981;DHT22;479;53.514;9.994;2023-09-30T08:59:02;23.00;99.90
981;DHT22;479;53.514;9.994;2023-09-30T09:01:35;22.90;99.90
981;DHT22;479;53.514;9.994;2023-09-30T09:04:09;22.70;99.90
981;DHT22;479;53.514;9.994;2023-09-30T09:06:39;22.40;99.90
981;DHT22;479;53.514;9.994;2023-09-30T09:09:13;22.20;99.90
981;DHT22;479;53.514;9.994;2023-09-30T09:11:45;21.40;99.90
981;DHT22;479;53.514;9.994;2023-09-30T09:14:16;20.80;99.90
981;DHT22;479;53.514;9.994;2023-09-30T09:20:32;21.00;99.90
981;DHT22;479;53.514;9.994;2023-09-30T09:23:28;20.80;99.90
981;DHT22;479;53.514;9.994;2023-09-30T09:26:27;21.40;99.90
981;DHT22;479;53.514;9.994;2023-09-30T09:28:57;21.40;99.90
981;DHT22;479;53.514;9.994;2023-09-30T09:31:27;21.40;99.90
981;DHT22;479;53.514;9.994;2023-09-30T09:34:00;21.00;99.90
981;DHT22;479;53.514;9.994;2023-09-30T09:36:59;20.60;99.90
981;DHT22;479;53.514;9.994;2023-09-30T09:39:29;20.50;99.90
981;DHT22;479;53.514;9.994;2023-09-30T09:41:57;20.80;99.90
981;DHT22;479;53.514;9.994;2023-09-30T09:44:24;20.90;99.90
981;DHT22;479;53.514;9.994;2023-09-30T09:46:52;21.00;99.90
981;DHT22;479;53.514;9.994;2023-09-30T09:49:19;21.10;99.90
981;DHT22;479;53.514;9.994;2023-09-30T09:51:48;21.10;99.90
981;DHT22;479;53.514;9.994;2023-09-30T09:54:17;21.00;99.90
981;DHT22;479;53.514;9.994;2023-09-30T09:56:45;21.00;99.90
981;DHT22;479;53.514;9.994;2023-09-30T09:59:13;20.80;99.90
981;DHT22;479;53.514;9.994;2023-09-30T10:01:41;21.00;99.90
981;DHT22;479;53.514;9.994;2023-09-30T10:04:08;21.00;99.90
981;DHT22;479;53.514;9.994;2023-09-30T10:06:37;21.10;99.90
981;DHT22;479;53.514;9.994;2023-09-30T10:09:09;21.20;99.90
981;DHT22;479;53.514;9.994;2023-09-30T10:11:40;21.20;99.90
981;DHT22;479;53.514;9.994;2023-09-30T10:14:07;21.20;99.90
981;DHT22;479;53.514;9.994;2023-09-30T10:16:49;21.20;99.90
981;DHT22;479;53.514;9.994;2023-09-30T10:19:19;21.00;99.90
981;DHT22;479;53.514;9.994;2023-09-30T10:22:22;21.00;99.90
981;DHT22;479;53.514;9.994;2023-09-30T10:24:51;21.30;99.90
981;DHT22;479;53.514;9.994;2023-09-30T10:27:34;21.00;99.90
981;DHT22;479;53.514;9.994;2023-09-30T10:30:07;21.30;99.90
981;DHT22;479;53.514;9.994;2023-09-30T10:33:09;21.30;99.90
981;DHT22;479;53.514;9.994;2023-09-30T10:35:47;21.70;99.90
981;DHT22;479;53.514;9.994;2023-09-30T10:38:36;21.40;99.90
981;DHT22;479;53.514;9.994;2023-09-30T10:41:03;21.60;99.90
981;DHT22;479;53.514;9.994;2023-09-30T10:43:33;21.30;99.90
981;DHT22;479;53.514;9.994;2023-09-30T10:46:01;21.10;99.90
981;DHT22;479;53.514;9.994;2023-09-30T10:48:37;21.00;99.90
981;DHT22;479;53.514;9.994;2023-09-30T10:51:12;21.30;99.90
981;DHT22;479;53.514;9.994;2023-09-30T10:53:42;21.50;99.90
981;DHT22;479;53.514;9.994;2023-09-30T10:56:10;21.30;99.90
981;DHT22;479;53.514;9.994;2023-09-30T10:58:42;21.40;99.90
981;DHT22;479;53.514;9.994;2023-09-30T11:01:10;21.50;99.90
981;DHT22;479;53.514;9.994;2023-09-30T11:03:36;21.20;99.90
981;DHT22;479;53.514;9.994;2023-09-30T11:06:04;21.20;99.90
981;DHT22;479;53.514;9.994;2023-09-30T11:08:30;21.10;99.90
981;DHT22;479;53.514;9.994;2023-09-30T11:10:59;21.10;99.90
981;DHT22;479;53.514;9.994;2023-09-30T11:13:32;21.30;99.90
981;DHT22;479;53.514;9.994;2023-09-30T11:16:03;21.00;99.90
981;DHT22;479;53.514;9.994;2023-09-30T11:18:31;21.10;99.90
981;DHT22;479;53.514;9.994;2023-09-30T11:21:06;20.50;99.90
981;DHT22;479;53.514;9.994;2023-09-30T11:23:35;20.40;99.90
981;DHT22;479;53.514;9.994;2023-09-30T11:26:02;20.80;99.90
981;DHT22;479;53.514;9.994;2023-09-30T11:28:38;21.20;99.90
981;DHT22;479;53.514;9.994;2023-09-30T11:31:09;20.70;99.90
981;DHT22;479;53.514;9.994;2023-09-30T11:33:53;20.90;99.90
981;DHT22;479;53.514;9.994;2023-09-30T11:36:23;20.90;99.90
981;DHT22;479;53.514;9.994;2023-09-30T11:38:51;21.10;99.90
981;DHT22;479;53.514;9.994;2023-09-30T11:41:19;20.50;99.90
981;DHT22;479;53.514;9.994;2023-09-30T11:44:03;20.40;99.90
981;DHT22;479;53.514;9.994;2023-09-30T11:46:48;20.30;99.90
981;DHT22;479;53.514;9.994;2023-09-30T11:49:25;20.40;99.90
981;DHT22;479;53.514;9.994;2023-09-30T11:51:52;20.50;99.90
981;DHT22;479;53.514;9.994;2023-09-30T11:54:19;20.80;99.90
981;DHT22;479;53.514;9.994;2023-09-30T11:56:47;20.90;99.90
981;DHT22;479;53.514;9.994;2023-09-30T11:59:16;20.80;99.90
981;DHT22;479;53.514;9.994;2023-09-30T12:01:46;20.80;99.90
981;DHT22;479;53.514;9.994;2023-09-30T12:04:15;20.90;99.90
981;DHT22;479;53.514;9.994;2023-09-30T12:06:44;20.90;99.90
981;DHT22;479;53.514;9.994;2023-09-30T12:09:12;20.80;99.90
981;DHT22;479;53.514;9.994;2023-09-30T12:11:41;20.80;99.90
981;DHT22;479;53.514;9.994;2023-09-30T12:14:10;20.80;99.90
981;DHT22;479;53.514;9.994;2023-09-30T12:16:38;20.80;99.90
981;DHT22;479;53.514;9.994;2023-09-30T12:19:07;20.90;99.90
981;DHT22;479;53.514;9.994;2023-09-30T12:21:34;20.80;99.90
981;DHT22;479;53.514;9.994;2023-09-30T12:24:02;20.70;99.90
981;DHT22;479;53.514;9.994;2023-09-30T12:26:30;20.40;99.90
981;DHT22;479;53.514;9.994;2023-09-30T12:28:57;19.80;99.90
981;DHT22;479;53.514;9.994;2023-09-30T12:31:24;19.50;99.90
981;DHT22;479;53.514;9.994;2023-09-30T12:33:51;19.30;99.90
981;DHT22;479;53.514;9.994;2023-09-30T12:36:21;19.10;99.90
981;DHT22;479;53.514;9.994;2023-09-30T12:38:48;19.20;99.90
981;DHT22;479;53.514;9.994;2023-09-30T12:41:15;19.20;99.90
981;DHT22;479;53.514;9.994;2023-09-30T12:43:45;19.30;99.90
981;DHT22;479;53.514;9.994;2023-09-30T12:46:12;19.30;99.90
981;DHT22;479;53.514;9.994;2023-09-30T12:48:39;19.50;99.90
981;DHT22;479;53.514;9.994;2023-09-30T12:51:06;19.70;99.90
981;DHT22;479;53.514;9.994;2023-09-30T12:53:36;19.90;99.90
981;DHT22;479;53.514;9.994;2023-09-30T12:56:03;19.90;99.90
981;DHT22;479;53.514;9.994;2023-09-30T12:58:30;19.90;99.90
981;DHT22;479;53.514;9.994;2023-09-30T13:00:57;19.80;99.90
981;DHT22;479;53.514;9.994;2023-09-30T13:03:24;19.50;99.90
981;DHT22;479;53.514;9.994;2023-09-30T13:05:51;19.40;99.90
981;DHT22;479;53.514;9.994;2023-09-30T13:08:18;19.60;99.90
981;DHT22;479;53.514;9.994;2023-09-30T13:10:47;19.70;99.90
981;DHT22;479;53.514;9.994;2023-09-30T13:13:16;19.60;99.90
981;DHT22;479;53.514;9.994;2023-09-30T13:15:43;19.60;99.90
981;DHT22;479;53.514;9.994;2023-09-30T13:18:10;19.40;99.90
981;DHT22;479;53.514;9.994;2023-09-30T13:20:39;19.40;99.90
981;DHT22;479;53.514;9.994;2023-09-30T13:23:06;19.60;99.90
981;DHT22;479;53.514;9.994;2023-09-30T13:25:33;19.90;99.90
981;DHT22;479;53.514;9.994;2023-09-30T13:28:02;20.00;99.90
981;DHT22;479;53.514;9.994;2023-09-30T13:30:29;20.20;99.90
981;DHT22;479;53.514;9.994;2023-09-30T13:32:56;20.20;99.90
981;DHT22;479;53.514;9.994;2023-09-30T13:35:23;20.10;99.90
981;DHT22;479;53.514;9.994;2023-09-30T13:37:50;20.00;99.90
981;DHT22;479;53.514;9.994;2023-09-30T13:40:18;19.90;99.90
981;DHT22;479;53.514;9.994;2023-09-30T13:42:45;19.70;99.90
981;DHT22;479;53.514;9.994;2023-09-30T13:45:13;19.80;99.90
981;DHT22;479;53.514;9.994;2023-09-30T13:47:42;19.60;99.90
981;DHT22;479;53.514;9.994;2023-09-30T13:50:09;19.40;99.90
981;DHT22;479;53.514;9.994;2023-09-30T13:52:36;19.40;99.90
981;DHT22;479;53.514;9.994;2023-09-30T13:55:04;19.40;99.90
981;DHT22;479;53.514;9.994;2023-09-30T13:57:31;19.60;99.90
981;DHT22;479;53.514;9.994;2023-09-30T13:59:58;19.60;99.90
981;DHT22;479;53.514;9.994;2023-09-30T14:02:27;19.50;99.90
981;DHT22;479;53.514;9.994;2023-09-30T14:04:54;19.40;99.90
981;DHT22;479;53.514;9.994;2023-09-30T14:07:21;19.30;99.90
981;DHT22;479;53.514;9.994;2023-09-30T14:09:48;19.20;99.90
981;DHT22;479;53.514;9.994;2023-09-30T14:12:15;19.20;99.90
981;DHT22;479;53.514;9.994;2023-09-30T14:14:42;19.10;99.90
981;DHT22;479;53.514;9.994;2023-09-30T14:17:09;19.20;99.90
981;DHT22;479;53.514;9.994;2023-09-30T14:19:38;19.20;99.90
981;DHT22;479;53.514;9.994;2023-09-30T14:22:06;19.00;99.90
981;DHT22;479;53.514;9.994;2023-09-30T14:24:34;18.80;99.90
981;DHT22;479;53.514;9.994;2023-09-30T14:27:01;18.90;99.90
981;DHT22;479;53.514;9.994;2023-09-30T14:29:29;18.90;99.90
981;DHT22;479;53.514;9.994;2023-09-30T14:31:56;18.80;99.90
981;DHT22;479;53.514;9.994;2023-09-30T14:34:23;18.90;99.90
981;DHT22;479;53.514;9.994;2023-09-30T14:36:52;18.90;99.90
981;DHT22;479;53.514;9.994;2023-09-30T14:39:19;18.70;99.90
981;DHT22;479;53.514;9.994;2023-09-30T14:41:46;18.60;99.90
981;DHT22;479;53.514;9.994;2023-09-30T14:44:13;18.60;99.90
981;DHT22;479;53.514;9.994;2023-09-30T14:46:40;18.70;99.90
981;DHT22;479;53.514;9.994;2023-09-30T14:49:07;18.70;99.90
981;DHT22;479;53.514;9.994;2023-09-30T14:51:34;18.80;99.90
981;DHT22;479;53.514;9.994;2023-09-30T14:54:03;18.90;99.90
981;DHT22;479;53.514;9.994;2023-09-30T14:56:30;19.00;99.90
981;DHT22;479;53.514;9.994;2023-09-30T14:58:57;19.00;99.90
981;DHT22;479;53.514;9.994;2023-09-30T15:01:24;18.90;99.90
981;DHT22;479;53.514;9.994;2023-09-30T15:03:51;18.80;99.90
981;DHT22;479;53.514;9.994;2023-09-30T15:06:18;18.90;99.90
981;DHT22;479;53.514;9.994;2023-09-30T15:08:46;18.90;99.90
981;DHT22;479;53.514;9.994;2023-09-30T15:11:15;18.90;99.90
981;DHT22;479;53.514;9.994;2023-09-30T15:13:42;18.90;99.90
981;DHT22;479;53.514;9.994;2023-09-30T15:16:15;19.00;99.90
981;DHT22;479;53.514;9.994;2023-09-30T15:18:42;19.00;99.90
981;DHT22;479;53.514;9.994;2023-09-30T15:21:09;18.90;99.90
981;DHT22;479;53.514;9.994;2023-09-30T15:23:36;19.00;99.90
981;DHT22;479;53.514;9.994;2023-09-30T15:26:03;18.90;99.90
981;DHT22;479;53.514;9.994;2023-09-30T15:28:31;18.80;99.90
981;DHT22;479;53.514;9.994;2023-09-30T15:30:59;18.90;99.90
981;DHT22;479;53.514;9.994;2023-09-30T15:33:27;18.90;99.90
981;DHT22;479;53.514;9.994;2023-09-30T15:35:54;19.00;99.90
981;DHT22;479;53.514;9.994;2023-09-30T15:38:21;19.00;99.90
981;DHT22;479;53.514;9.994;2023-09-30T15:40:53;18.80;99.90
981;DHT22;479;53.514;9.994;2023-09-30T15:43:23;18.80;99.90
981;DHT22;479;53.514;9.994;2023-09-30T15:45:52;18.90;99.90
981;DHT22;479;53.514;9.994;2023-09-30T15:48:19;19.00;99.90
981;DHT22;479;53.514;9.994;2023-09-30T15:50:46;19.00;99.90
981;DHT22;479;53.514;9.994;2023-09-30T15:53:15;18.90;99.90
981;DHT22;479;53.514;9.994;2023-09-30T15:55:45;18.90;99.90
981;DHT22;479;53.514;9.994;2023-09-30T15:58:12;18.80;99.90
981;DHT22;479;53.514;9.994;2023-09-30T16:00:39;18.60;99.90
981;DHT22;479;53.514;9.994;2023-09-30T16:03:10;18.40;99.90
981;DHT22;479;53.514;9.994;2023-09-30T16:05:38;18.50;99.90
981;DHT22;479;53.514;9.994;2023-09-30T16:08:05;18.60;99.90
981;DHT22;479;53.514;9.994;2023-09-30T16:10:33;18.50;99.90
981;DHT22;479;53.514;9.994;2023-09-30T16:13:01;18.40;99.90
981;DHT22;479;53.514;9.994;2023-09-30T16:15:29;18.30;99.90
981;DHT22;479;53.514;9.994;2023-09-30T16:17:57;18.20;99.90
981;DHT22;479;53.514;9.994;2023-09-30T16:20:26;18.10;99.90
981;DHT22;479;53.514;9.994;2023-09-30T16:22:53;18.00;99.90
981;DHT22;479;53.514;9.994;2023-09-30T16:25:21;18.10;99.90
981;DHT22;479;53.514;9.994;2023-09-30T16:27:48;18.20;99.90
981;DHT22;479;53.514;9.994;2023-09-30T16:30:15;18.20;99.90
981;DHT22;479;53.514;9.994;2023-09-30T16:32:42;18.10;99.90
981;DHT22;479;53.514;9.994;2023-09-30T16:35:09;18.10;99.90
981;DHT22;479;53.514;9.994;2023-09-30T16:37:38;18.00;99.90
981;DHT22;479;53.514;9.994;2023-09-30T16:40:08;18.00;99.90
981;DHT22;479;53.514;9.994;2023-09-30T16:42:36;18.00;99.90
981;DHT22;479;53.514;9.994;2023-09-30T16:45:06;18.10;99.90
981;DHT22;479;53.514;9.994;2023-09-30T16:47:35;18.00;99.90
981;DHT22;479;53.514;9.994;2023-09-30T16:50:02;18.00;99.90